sensor_id;sensor_type;location;lat;lon;timestamp;pressure;altitude;pressure_sealevel;temperature;humidity
77112;BME280;66064;50.226;14.344;2023-06-10T00:00:41;99224.41;;;14.90;99.71
77112;BME280;66064;50.226;14.344;2023-06-10T00:03:27;99215.56;;;14.82;100.00
77112;BME280;66064;50.226;14.344;2023-06-10T00:05:53;99212.03;;;14.80;100.00
77112;BME280;66064;50.226;14.344;2023-06-10T00:08:20;99208.53;;;14.75;100.00
77112;BME280;66064;50.226;14.344;2023-06-10T00:10:45;99225.41;;;14.80;100.00
77112;BME280;66064;50.226;14.344;2023-06-10T00:13:12;99231.69;;;14.79;100.00
77112;BME280;66064;50.226;14.344;2023-06-10T00:15:38;99224.59;;;14.75;100.00
77112;BME280;66064;50.226;14.344;2023-06-10T00:18:04;99218.47;;;14.63;99.54
77112;BME280;66064;50.226;14.344;2023-06-10T00:20:30;99228.31;;;14.61;98.91
77112;BME280;66064;50.226;14.344;2023-06-10T00:23:01;99245.31;;;14.60;98.58
77112;BME280;66064;50.226;14.344;2023-06-10T00:25:27;99237.28;;;14.59;98.04
77112;BME280;66064;50.226;14.344;2023-06-10T00:27:53;99221.31;;;14.50;99.14
77112;BME280;66064;50.226;14.344;2023-06-10T00:30:18;99229.34;;;14.50;99.10
77112;BME280;66064;50.226;14.344;2023-06-10T00:32:44;99224.91;;;14.46;98.79
77112;BME280;66064;50.226;14.344;2023-06-10T00:35:10;99226.75;;;14.39;100.00
77112;BME280;66064;50.226;14.344;2023-06-10T00:37:36;99238.34;;;14.44;100.00
77112;BME280;66064;50.226;14.344;2023-06-10T00:40:04;99234.72;;;14.47;100.00
77112;BME280;66064;50.226;14.344;2023-06-10T00:42:30;99240.13;;;14.39;100.00
77112;BME280;66064;50.226;14.344;2023-06-10T00:44:56;99238.38;;;14.36;100.00
77112;BME280;66064;50.226;14.344;2023-06-10T00:47:23;99250.88;;;14.34;100.00
77112;BME280;66064;50.226;14.344;2023-06-10T00:49:52;99249.13;;;14.32;98.85
77112;BME280;66064;50.226;14.344;2023-06-10T00:52:18;99253.63;;;14.28;98.92
77112;BME280;66064;50.226;14.344;2023-06-10T00:54:46;99244.75;;;14.25;98.94
77112;BME280;66064;50.226;14.344;2023-06-10T00:57:12;99233.34;;;14.03;100.00
77112;BME280;66064;50.226;14.344;2023-06-10T00:59:43;99256.41;;;14.15;100.00
77112;BME280;66064;50.226;14.344;2023-06-10T01:02:13;99248.34;;;14.21;100.00
77112;BME280;66064;50.226;14.344;2023-06-10T01:04:38;99241.19;;;14.23;99.89
77112;BME280;66064;50.226;14.344;2023-06-10T01:09:50;99246.44;;;14.33;99.38
77112;BME280;66064;50.226;14.344;2023-06-10T01:14:47;99245.50;;;14.39;99.48
77112;BME280;66064;50.226;14.344;2023-06-10T01:17:14;99255.38;;;14.31;99.47
77112;BME280;66064;50.226;14.344;2023-06-10T01:19:42;99252.75;;;14.28;100.00
77112;BME280;66064;50.226;14.344;2023-06-10T01:22:09;99255.34;;;14.32;100.00
77112;BME280;66064;50.226;14.344;2023-06-10T01:24:37;99260.69;;;14.42;100.00
77112;BME280;66064;50.226;14.344;2023-06-10T01:27:11;99255.31;;;14.42;99.71
77112;BME280;66064;50.226;14.344;2023-06-10T01:29:45;99259.75;;;14.40;98.93
77112;BME280;66064;50.226;14.344;2023-06-10T01:32:18;99261.56;;;14.36;98.42
77112;BME280;66064;50.226;14.344;2023-06-10T01:34:45;99263.41;;;14.29;98.09
77112;BME280;66064;50.226;14.344;2023-06-10T01:37:13;99268.84;;;14.25;97.63
77112;BME280;66064;50.226;14.344;2023-06-10T01:39:42;99257.28;;;14.17;97.25
77112;BME280;66064;50.226;14.344;2023-06-10T01:42:10;99267.09;;;14.16;97.24
77112;BME280;66064;50.226;14.344;2023-06-10T01:44:38;99273.38;;;14.14;98.75
77112;BME280;66064;50.226;14.344;2023-06-10T01:47:05;99277.00;;;14.10;99.84
77112;BME280;66064;50.226;14.344;2023-06-10T01:49:31;99283.25;;;14.06;100.00
77112;BME280;66064;50.226;14.344;2023-06-10T01:51:57;99288.63;;;14.02;100.00
77112;BME280;66064;50.226;14.344;2023-06-10T01:54:23;99280.63;;;13.99;99.75
77112;BME280;66064;50.226;14.344;2023-06-10T01:56:49;99282.38;;;14.04;99.35
77112;BME280;66064;50.226;14.344;2023-06-10T01:59:14;99283.28;;;14.04;98.71
77112;BME280;66064;50.226;14.344;2023-06-10T02:01:41;99276.16;;;13.98;100.00
77112;BME280;66064;50.226;14.344;2023-06-10T02:04:07;99287.75;;;14.02;100.00
77112;BME280;66064;50.226;14.344;2023-06-10T02:06:33;99279.72;;;14.02;100.00
77112;BME280;66064;50.226;14.344;2023-06-10T02:09:01;99275.38;;;13.90;100.00
77112;BME280;66064;50.226;14.344;2023-06-10T02:11:27;99278.91;;;13.92;100.00
77112;BME280;66064;50.226;14.344;2023-06-10T02:13:53;99286.03;;;13.95;99.64
77112;BME280;66064;50.226;14.344;2023-06-10T02:16:19;99288.75;;;13.87;100.00
77112;BME280;66064;50.226;14.344;2023-06-10T02:18:46;99292.41;;;13.77;100.00
77112;BME280;66064;50.226;14.344;2023-06-10T02:21:14;99294.13;;;13.81;100.00
77112;BME280;66064;50.226;14.344;2023-06-10T02:23:40;99284.34;;;13.80;100.00
77112;BME280;66064;50.226;14.344;2023-06-10T02:26:06;99291.44;;;13.84;100.00
77112;BME280;66064;50.226;14.344;2023-06-10T02:28:32;99280.81;;;13.75;99.85
77112;BME280;66064;50.226;14.344;2023-06-10T02:30:58;99289.75;;;13.76;100.00
77112;BME280;66064;50.226;14.344;2023-06-10T02:33:24;99288.97;;;13.58;100.00
77112;BME280;66064;50.226;14.344;2023-06-10T02:35:50;99291.63;;;13.58;100.00
77112;BME280;66064;50.226;14.344;2023-06-10T02:38:16;99294.31;;;13.58;100.00
77112;BME280;66064;50.226;14.344;2023-06-10T02:40:42;99295.19;;;13.59;100.00
77112;BME280;66064;50.226;14.344;2023-06-10T02:43:09;99290.75;;;13.56;100.00
77112;BME280;66064;50.226;14.344;2023-06-10T02:45:35;99301.41;;;13.62;100.00
77112;BME280;66064;50.226;14.344;2023-06-10T02:48:01;99291.63;;;13.60;100.00
77112;BME280;66064;50.226;14.344;2023-06-10T02:50:27;99298.69;;;13.67;100.00
77112;BME280;66064;50.226;14.344;2023-06-10T02:52:53;99290.75;;;13.56;100.00
77112;BME280;66064;50.226;14.344;2023-06-10T02:55:19;99297.88;;;13.59;100.00
77112;BME280;66064;50.226;14.344;2023-06-10T02:57:44;99297.88;;;13.57;99.97
77112;BME280;66064;50.226;14.344;2023-06-10T03:00:11;99306.78;;;13.56;99.50
77112;BME280;66064;50.226;14.344;2023-06-10T03:02:37;99308.56;;;13.56;99.25
77112;BME280;66064;50.226;14.344;2023-06-10T03:05:06;99309.47;;;13.52;99.69
77112;BME280;66064;50.226;14.344;2023-06-10T03:07:36;99313.94;;;13.48;99.53
77112;BME280;66064;50.226;14.344;2023-06-10T03:10:03;99306.84;;;13.47;99.12
77112;BME280;66064;50.226;14.344;2023-06-10T03:12:29;99301.53;;;13.38;99.03
77112;BME280;66064;50.226;14.344;2023-06-10T03:14:55;99302.44;;;13.32;98.05
77112;BME280;66064;50.226;14.344;2023-06-10T03:17:20;99314.91;;;13.34;99.57
77112;BME280;66064;50.226;14.344;2023-06-10T03:19:47;99313.19;;;13.29;99.54
77112;BME280;66064;50.226;14.344;2023-06-10T03:22:14;99308.69;;;13.33;99.73
77112;BME280;66064;50.226;14.344;2023-06-10T03:24:41;99312.25;;;13.32;99.04
77112;BME280;66064;50.226;14.344;2023-06-10T03:27:10;99312.28;;;13.29;98.74
77112;BME280;66064;50.226;14.344;2023-06-10T03:29:37;99306.06;;;13.25;99.30
77112;BME280;66064;50.226;14.344;2023-06-10T03:32:03;99314.97;;;13.27;100.00
77112;BME280;66064;50.226;14.344;2023-06-10T03:34:29;99301.56;;;13.35;100.00
77112;BME280;66064;50.226;14.344;2023-06-10T03:36:56;99318.44;;;13.43;100.00
77112;BME280;66064;50.226;14.344;2023-06-10T03:39:22;99313.13;;;13.39;100.00
77112;BME280;66064;50.226;14.344;2023-06-10T03:41:55;99316.63;;;13.48;100.00
77112;BME280;66064;50.226;14.344;2023-06-10T03:44:24;99318.34;;;13.63;100.00
77112;BME280;66064;50.226;14.344;2023-06-10T03:46:51;99322.75;;;13.69;100.00
77112;BME280;66064;50.226;14.344;2023-06-10T03:49:18;99315.59;;;13.72;100.00
77112;BME280;66064;50.226;14.344;2023-06-10T03:51:43;99311.13;;;13.74;100.00
77112;BME280;66064;50.226;14.344;2023-06-10T03:54:09;99321.72;;;13.89;100.00
77112;BME280;66064;50.226;14.344;2023-06-10T03:56:35;99318.09;;;13.99;100.00
77112;BME280;66064;50.226;14.344;2023-06-10T03:59:01;99317.97;;;14.13;100.00
77112;BME280;66064;50.226;14.344;2023-06-10T04:01:27;99335.66;;;14.32;99.66
77112;BME280;66064;50.226;14.344;2023-06-10T04:03:53;99331.16;;;14.42;98.31
77112;BME280;66064;50.226;14.344;2023-06-10T04:06:20;99338.22;;;14.52;98.18
77112;BME280;66064;50.226;14.344;2023-06-10T04:08:48;99332.66;;;14.72;98.20
77112;BME280;66064;50.226;14.344;2023-06-10T04:11:14;99336.84;;;14.96;96.87
77112;BME280;66064;50.226;14.344;2023-06-10T04:13:40;99334.09;;;15.07;95.06
77112;BME280;66064;50.226;14.344;2023-06-10T04:16:06;99334.66;;;15.31;94.44
77112;BME280;66064;50.226;14.344;2023-06-10T04:18:32;99347.84;;;15.48;93.85
77112;BME280;66064;50.226;14.344;2023-06-10T04:20:58;99347.38;;;15.88;93.07
77112;BME280;66064;50.226;14.344;2023-06-10T04:23:24;99343.38;;;16.15;91.85
77112;BME280;66064;50.226;14.344;2023-06-10T04:25:50;99343.69;;;16.50;89.94
77112;BME280;66064;50.226;14.344;2023-06-10T04:28:16;99353.44;;;17.05;88.17
77112;BME280;66064;50.226;14.344;2023-06-10T04:30:42;99349.44;;;17.27;86.54
77112;BME280;66064;50.226;14.344;2023-06-10T04:33:08;99330.50;;;17.75;83.40
77112;BME280;66064;50.226;14.344;2023-06-10T04:35:34;99342.63;;;18.68;77.79
77112;BME280;66064;50.226;14.344;2023-06-10T04:38:01;99342.19;;;19.48;76.89
77112;BME280;66064;50.226;14.344;2023-06-10T04:40:29;99335.97;;;20.07;75.53
77112;BME280;66064;50.226;14.344;2023-06-10T04:42:55;99342.50;;;21.07;70.45
77112;BME280;66064;50.226;14.344;2023-06-10T04:45:21;99327.59;;;21.45;70.53
77112;BME280;66064;50.226;14.344;2023-06-10T04:47:47;99329.13;;;21.98;67.92
77112;BME280;66064;50.226;14.344;2023-06-10T04:50:13;99340.84;;;22.44;65.60
77112;BME280;66064;50.226;14.344;2023-06-10T04:52:39;99339.00;;;23.09;63.76
77112;BME280;66064;50.226;14.344;2023-06-10T04:55:07;99330.31;;;23.61;62.26
77112;BME280;66064;50.226;14.344;2023-06-10T04:57:33;99325.19;;;23.93;60.62
77112;BME280;66064;50.226;14.344;2023-06-10T04:59:59;99333.50;;;24.63;58.47
77112;BME280;66064;50.226;14.344;2023-06-10T05:02:26;99332.16;;;24.89;57.74
77112;BME280;66064;50.226;14.344;2023-06-10T05:04:52;99329.19;;;24.95;56.00
77112;BME280;66064;50.226;14.344;2023-06-10T05:07:19;99322.47;;;25.86;54.20
77112;BME280;66064;50.226;14.344;2023-06-10T05:09:44;99324.81;;;26.25;53.08
77112;BME280;66064;50.226;14.344;2023-06-10T05:12:10;99324.66;;;26.59;51.72
77112;BME280;66064;50.226;14.344;2023-06-10T05:14:36;99325.75;;;27.16;50.68
77112;BME280;66064;50.226;14.344;2023-06-10T05:17:02;99331.91;;;27.64;49.73
77112;BME280;66064;50.226;14.344;2023-06-10T05:19:30;99332.88;;;28.06;48.22
77112;BME280;66064;50.226;14.344;2023-06-10T05:21:57;99332.16;;;28.72;45.90
77112;BME280;66064;50.226;14.344;2023-06-10T05:24:23;99337.53;;;29.00;43.20
77112;BME280;66064;50.226;14.344;2023-06-10T05:26:49;99327.56;;;28.99;45.11
77112;BME280;66064;50.226;14.344;2023-06-10T05:29:15;99327.00;;;28.94;45.00
77112;BME280;66064;50.226;14.344;2023-06-10T05:31:42;99341.50;;;29.61;44.03
77112;BME280;66064;50.226;14.344;2023-06-10T05:34:07;99335.66;;;30.04;42.51
77112;BME280;66064;50.226;14.344;2023-06-10T05:36:33;99338.97;;;30.09;41.93
77112;BME280;66064;50.226;14.344;2023-06-10T05:38:59;99333.25;;;30.61;41.07
77112;BME280;66064;50.226;14.344;2023-06-10T05:41:25;99338.28;;;30.91;39.39
77112;BME280;66064;50.226;14.344;2023-06-10T05:43:51;99327.00;;;29.72;41.20
77112;BME280;66064;50.226;14.344;2023-06-10T05:46:17;99337.47;;;28.05;45.64
77112;BME280;66064;50.226;14.344;2023-06-10T05:48:43;99351.88;;;27.50;46.94
77112;BME280;66064;50.226;14.344;2023-06-10T05:51:09;99352.75;;;27.51;47.41
77112;BME280;66064;50.226;14.344;2023-06-10T05:53:36;99349.03;;;28.78;46.02
77112;BME280;66064;50.226;14.344;2023-06-10T05:56:02;99347.56;;;30.77;42.03
77112;BME280;66064;50.226;14.344;2023-06-10T05:58:28;99354.09;;;31.35;40.28
77112;BME280;66064;50.226;14.344;2023-06-10T06:00:54;99343.66;;;32.85;37.13
77112;BME280;66064;50.226;14.344;2023-06-10T06:03:19;99343.38;;;32.12;37.00
77112;BME280;66064;50.226;14.344;2023-06-10T06:05:45;99347.16;;;30.34;38.95
77112;BME280;66064;50.226;14.344;2023-06-10T06:08:11;99357.00;;;28.69;43.49
77112;BME280;66064;50.226;14.344;2023-06-10T06:10:39;99355.16;;;27.27;47.29
77112;BME280;66064;50.226;14.344;2023-06-10T06:13:05;99361.56;;;26.80;48.38
77112;BME280;66064;50.226;14.344;2023-06-10T06:15:31;99355.81;;;26.39;50.02
77112;BME280;66064;50.226;14.344;2023-06-10T06:17:57;99349.09;;;27.22;50.26
77112;BME280;66064;50.226;14.344;2023-06-10T06:20:23;99353.13;;;29.52;44.40
77112;BME280;66064;50.226;14.344;2023-06-10T06:22:49;99348.59;;;30.27;40.64
77112;BME280;66064;50.226;14.344;2023-06-10T06:25:15;99342.59;;;29.84;42.38
77112;BME280;66064;50.226;14.344;2023-06-10T06:27:41;99362.53;;;29.08;44.08
77112;BME280;66064;50.226;14.344;2023-06-10T06:30:07;99348.19;;;29.05;45.15
77112;BME280;66064;50.226;14.344;2023-06-10T06:32:33;99350.91;;;29.57;42.25
77112;BME280;66064;50.226;14.344;2023-06-10T06:35:00;99354.19;;;30.75;41.26
77112;BME280;66064;50.226;14.344;2023-06-10T06:37:25;99362.13;;;29.79;41.14
77112;BME280;66064;50.226;14.344;2023-06-10T06:39:52;99360.31;;;29.40;43.26
77112;BME280;66064;50.226;14.344;2023-06-10T06:42:19;99369.16;;;29.31;43.04
77112;BME280;66064;50.226;14.344;2023-06-10T06:44:47;99369.53;;;29.00;44.59
77112;BME280;66064;50.226;14.344;2023-06-10T06:47:13;99362.22;;;29.90;43.87
77112;BME280;66064;50.226;14.344;2023-06-10T06:49:39;99358.28;;;30.93;40.59
77112;BME280;66064;50.226;14.344;2023-06-10T06:52:05;99369.91;;;32.46;38.06
77112;BME280;66064;50.226;14.344;2023-06-10T06:54:32;99369.53;;;31.60;38.97
77112;BME280;66064;50.226;14.344;2023-06-10T06:56:57;99372.94;;;30.44;38.88
77112;BME280;66064;50.226;14.344;2023-06-10T06:59:23;99374.19;;;29.77;40.22
77112;BME280;66064;50.226;14.344;2023-06-10T07:01:51;99375.47;;;29.46;42.45
77112;BME280;66064;50.226;14.344;2023-06-10T07:04:17;99372.69;;;28.94;44.08
77112;BME280;66064;50.226;14.344;2023-06-10T07:06:45;99380.97;;;28.65;44.73
77112;BME280;66064;50.226;14.344;2023-06-10T07:09:11;99385.69;;;28.49;44.38
77112;BME280;66064;50.226;14.344;2023-06-10T07:11:36;99388.56;;;27.91;45.96
77112;BME280;66064;50.226;14.344;2023-06-10T07:14:03;99383.25;;;26.68;48.17
77112;BME280;66064;50.226;14.344;2023-06-10T07:16:29;99379.94;;;26.14;49.69
77112;BME280;66064;50.226;14.344;2023-06-10T07:18:55;99389.22;;;26.27;51.04
77112;BME280;66064;50.226;14.344;2023-06-10T07:21:21;99390.06;;;25.96;51.85
77112;BME280;66064;50.226;14.344;2023-06-10T07:23:49;99397.16;;;25.99;50.55
77112;BME280;66064;50.226;14.344;2023-06-10T07:26:15;99387.91;;;25.86;52.56
77112;BME280;66064;50.226;14.344;2023-06-10T07:28:41;99402.84;;;25.78;52.63
77112;BME280;66064;50.226;14.344;2023-06-10T07:31:08;99401.56;;;25.68;52.77
77112;BME280;66064;50.226;14.344;2023-06-10T07:33:34;99396.28;;;25.65;52.51
77112;BME280;66064;50.226;14.344;2023-06-10T07:36:02;99395.44;;;25.65;52.19
77112;BME280;66064;50.226;14.344;2023-06-10T07:38:28;99411.50;;;25.18;51.61
77112;BME280;66064;50.226;14.344;2023-06-10T07:40:54;99417.91;;;24.05;53.82
77112;BME280;66064;50.226;14.344;2023-06-10T07:43:20;99416.03;;;24.64;55.33
77112;BME280;66064;50.226;14.344;2023-06-10T07:45:46;99413.84;;;24.89;54.26
77112;BME280;66064;50.226;14.344;2023-06-10T07:48:12;99412.63;;;24.96;54.04
77112;BME280;66064;50.226;14.344;2023-06-10T07:50:38;99411.25;;;25.22;55.65
77112;BME280;66064;50.226;14.344;2023-06-10T07:53:04;99426.88;;;25.36;52.70
77112;BME280;66064;50.226;14.344;2023-06-10T07:55:30;99411.34;;;25.55;53.05
77112;BME280;66064;50.226;14.344;2023-06-10T07:57:56;99424.88;;;25.57;55.42
77112;BME280;66064;50.226;14.344;2023-06-10T08:00:22;99411.97;;;25.08;52.56
77112;BME280;66064;50.226;14.344;2023-06-10T08:02:48;99425.00;;;24.66;53.73
77112;BME280;66064;50.226;14.344;2023-06-10T08:05:16;99428.16;;;25.12;55.08
77112;BME280;66064;50.226;14.344;2023-06-10T08:07:42;99412.00;;;25.26;53.99
77112;BME280;66064;50.226;14.344;2023-06-10T08:10:08;99425.94;;;25.37;54.83
77112;BME280;66064;50.226;14.344;2023-06-10T08:12:35;99421.78;;;27.99;51.27
77112;BME280;66064;50.226;14.344;2023-06-10T08:15:02;99422.75;;;28.54;45.88
77112;BME280;66064;50.226;14.344;2023-06-10T08:17:30;99412.41;;;28.31;45.82
77112;BME280;66064;50.226;14.344;2023-06-10T08:19:56;99426.94;;;27.75;46.57
77112;BME280;66064;50.226;14.344;2023-06-10T08:22:23;99434.06;;;27.17;48.56
77112;BME280;66064;50.226;14.344;2023-06-10T08:24:49;99438.47;;;26.73;50.18
77112;BME280;66064;50.226;14.344;2023-06-10T08:27:15;99434.50;;;26.63;49.32
77112;BME280;66064;50.226;14.344;2023-06-10T08:29:41;99432.06;;;27.05;49.12
77112;BME280;66064;50.226;14.344;2023-06-10T08:32:07;99431.00;;;27.08;46.42
77112;BME280;66064;50.226;14.344;2023-06-10T08:34:34;99421.72;;;26.79;46.79
77112;BME280;66064;50.226;14.344;2023-06-10T08:37:02;99431.53;;;26.19;47.88
77112;BME280;66064;50.226;14.344;2023-06-10T08:39:28;99439.34;;;26.09;47.92
77112;BME280;66064;50.226;14.344;2023-06-10T08:42:23;99431.19;;;26.58;48.02
77112;BME280;66064;50.226;14.344;2023-06-10T08:44:56;99430.63;;;26.35;49.04
77112;BME280;66064;50.226;14.344;2023-06-10T08:47:24;99436.00;;;25.35;50.19
77112;BME280;66064;50.226;14.344;2023-06-10T08:49:51;99433.56;;;25.48;50.62
77112;BME280;66064;50.226;14.344;2023-06-10T08:52:20;99434.34;;;25.67;51.46
77112;BME280;66064;50.226;14.344;2023-06-10T08:54:52;99428.41;;;25.59;51.37
77112;BME280;66064;50.226;14.344;2023-06-10T08:57:20;99426.03;;;26.03;50.49
77112;BME280;66064;50.226;14.344;2023-06-10T08:59:48;99428.25;;;26.29;51.76
77112;BME280;66064;50.226;14.344;2023-06-10T09:02:15;99427.03;;;26.51;50.13
77112;BME280;66064;50.226;14.344;2023-06-10T09:04:44;99421.72;;;26.47;48.90
77112;BME280;66064;50.226;14.344;2023-06-10T09:07:12;99413.53;;;25.99;49.98
77112;BME280;66064;50.226;14.344;2023-06-10T09:09:40;99419.19;;;25.96;51.93
77112;BME280;66064;50.226;14.344;2023-06-10T09:12:08;99430.25;;;25.58;53.88
77112;BME280;66064;50.226;14.344;2023-06-10T09:14:34;99422.38;;;25.18;54.91
77112;BME280;66064;50.226;14.344;2023-06-10T09:17:00;99428.13;;;24.94;53.65
77112;BME280;66064;50.226;14.344;2023-06-10T09:19:27;99428.09;;;24.58;55.64
77112;BME280;66064;50.226;14.344;2023-06-10T09:21:54;99437.59;;;24.11;55.54
77112;BME280;66064;50.226;14.344;2023-06-10T09:24:23;99435.94;;;23.88;55.99
77112;BME280;66064;50.226;14.344;2023-06-10T09:26:50;99444.41;;;23.82;59.93
77112;BME280;66064;50.226;14.344;2023-06-10T09:29:16;99446.44;;;23.77;61.73
77112;BME280;66064;50.226;14.344;2023-06-10T09:31:43;99452.41;;;23.64;63.32
77112;BME280;66064;50.226;14.344;2023-06-10T09:34:11;99458.66;;;23.04;62.95
77112;BME280;66064;50.226;14.344;2023-06-10T09:36:39;99456.97;;;23.22;65.75
77112;BME280;66064;50.226;14.344;2023-06-10T09:39:13;99444.47;;;22.52;62.43
77112;BME280;66064;50.226;14.344;2023-06-10T09:41:42;99450.72;;;22.76;64.25
77112;BME280;66064;50.226;14.344;2023-06-10T09:44:19;99458.31;;;22.90;65.21
77112;BME280;66064;50.226;14.344;2023-06-10T09:46:46;99462.44;;;22.78;65.43
77112;BME280;66064;50.226;14.344;2023-06-10T09:49:13;99457.69;;;22.83;67.92
77112;BME280;66064;50.226;14.344;2023-06-10T09:51:53;99457.34;;;22.69;65.03
77112;BME280;66064;50.226;14.344;2023-06-10T09:54:20;99456.69;;;22.17;64.78
77112;BME280;66064;50.226;14.344;2023-06-10T09:56:48;99462.41;;;22.10;64.83
77112;BME280;66064;50.226;14.344;2023-06-10T09:59:14;99462.41;;;22.56;66.75
77112;BME280;66064;50.226;14.344;2023-06-10T10:01:40;99460.16;;;22.89;68.72
77112;BME280;66064;50.226;14.344;2023-06-10T10:04:06;99465.72;;;22.86;67.96
77112;BME280;66064;50.226;14.344;2023-06-10T10:06:32;99457.06;;;22.77;66.15
77112;BME280;66064;50.226;14.344;2023-06-10T10:08:59;99459.47;;;22.84;66.22
77112;BME280;66064;50.226;14.344;2023-06-10T10:11:26;99457.38;;;23.13;64.19
77112;BME280;66064;50.226;14.344;2023-06-10T10:13:53;99462.97;;;23.50;66.14
77112;BME280;66064;50.226;14.344;2023-06-10T10:16:40;99468.59;;;23.67;63.98
77112;BME280;66064;50.226;14.344;2023-06-10T10:19:10;99460.34;;;23.89;63.57
77112;BME280;66064;50.226;14.344;2023-06-10T10:21:40;99463.41;;;24.02;64.58
77112;BME280;66064;50.226;14.344;2023-06-10T10:24:27;99453.22;;;24.26;65.82
77112;BME280;66064;50.226;14.344;2023-06-10T10:26:58;99444.19;;;23.86;60.49
77112;BME280;66064;50.226;14.344;2023-06-10T10:29:31;99442.59;;;24.01;64.79
77112;BME280;66064;50.226;14.344;2023-06-10T10:31:59;99439.44;;;24.49;65.42
77112;BME280;66064;50.226;14.344;2023-06-10T10:37:14;99444.09;;;24.83;65.30
77112;BME280;66064;50.226;14.344;2023-06-10T10:39:39;99436.66;;;24.87;60.68
77112;BME280;66064;50.226;14.344;2023-06-10T10:42:07;99440.19;;;25.42;62.29
77112;BME280;66064;50.226;14.344;2023-06-10T10:44:37;99441.47;;;25.35;61.68
77112;BME280;66064;50.226;14.344;2023-06-10T10:47:08;99431.81;;;25.64;59.17
77112;BME280;66064;50.226;14.344;2023-06-10T10:49:35;99427.53;;;25.93;60.75
77112;BME280;66064;50.226;14.344;2023-06-10T10:52:03;99427.16;;;25.99;58.31
77112;BME280;66064;50.226;14.344;2023-06-10T10:54:37;99428.53;;;26.40;56.71
77112;BME280;66064;50.226;14.344;2023-06-10T11:02:42;99429.22;;;28.95;49.98
77112;BME280;66064;50.226;14.344;2023-06-10T11:05:10;99431.91;;;29.09;46.50
77112;BME280;66064;50.226;14.344;2023-06-10T11:07:37;99424.38;;;29.12;46.36
77112;BME280;66064;50.226;14.344;2023-06-10T11:10:10;99430.53;;;29.16;45.88
77112;BME280;66064;50.226;14.344;2023-06-10T11:15:32;99419.53;;;28.48;46.92
77112;BME280;66064;50.226;14.344;2023-06-10T11:18:24;99412.69;;;28.96;45.73
77112;BME280;66064;50.226;14.344;2023-06-10T11:26:15;99407.50;;;27.79;46.92
77112;BME280;66064;50.226;14.344;2023-06-10T11:29:02;99408.50;;;28.07;46.52
77112;BME280;66064;50.226;14.344;2023-06-10T11:31:35;99397.75;;;28.04;46.30
77112;BME280;66064;50.226;14.344;2023-06-10T11:34:05;99403.53;;;28.28;48.27
77112;BME280;66064;50.226;14.344;2023-06-10T11:36:34;99395.94;;;28.60;48.98
77112;BME280;66064;50.226;14.344;2023-06-10T11:39:04;99389.75;;;28.29;48.08
77112;BME280;66064;50.226;14.344;2023-06-10T11:41:31;99398.13;;;28.12;47.64
77112;BME280;66064;50.226;14.344;2023-06-10T11:44:03;99390.88;;;28.53;45.13
77112;BME280;66064;50.226;14.344;2023-06-10T11:46:30;99389.13;;;28.52;48.90
77112;BME280;66064;50.226;14.344;2023-06-10T11:48:58;99391.16;;;29.04;44.64
77112;BME280;66064;50.226;14.344;2023-06-10T11:51:34;99383.81;;;29.57;43.18
77112;BME280;66064;50.226;14.344;2023-06-10T11:54:01;99374.72;;;29.56;42.77
77112;BME280;66064;50.226;14.344;2023-06-10T11:56:28;99372.44;;;29.63;47.16
77112;BME280;66064;50.226;14.344;2023-06-10T11:58:59;99382.00;;;28.50;46.87
77112;BME280;66064;50.226;14.344;2023-06-10T12:01:38;99376.59;;;27.63;48.26
77112;BME280;66064;50.226;14.344;2023-06-10T12:09:13;99360.81;;;27.97;48.13
77112;BME280;66064;50.226;14.344;2023-06-10T12:11:39;99370.91;;;27.52;50.09
77112;BME280;66064;50.226;14.344;2023-06-10T12:14:06;99362.94;;;27.63;51.96
77112;BME280;66064;50.226;14.344;2023-06-10T12:16:31;99363.72;;;27.21;50.55
77112;BME280;66064;50.226;14.344;2023-06-10T12:19:02;99370.47;;;26.84;52.99
77112;BME280;66064;50.226;14.344;2023-06-10T12:21:29;99356.91;;;26.82;53.68
77112;BME280;66064;50.226;14.344;2023-06-10T12:26:42;99344.91;;;27.31;54.92
77112;BME280;66064;50.226;14.344;2023-06-10T12:31:56;99345.28;;;27.25;51.73
77112;BME280;66064;50.226;14.344;2023-06-10T12:34:30;99340.00;;;27.80;49.50
77112;BME280;66064;50.226;14.344;2023-06-10T12:36:56;99329.34;;;28.04;49.22
77112;BME280;66064;50.226;14.344;2023-06-10T12:39:22;99338.13;;;28.37;49.79
77112;BME280;66064;50.226;14.344;2023-06-10T12:41:48;99331.56;;;28.40;47.03
77112;BME280;66064;50.226;14.344;2023-06-10T12:44:15;99315.19;;;27.83;43.99
77112;BME280;66064;50.226;14.344;2023-06-10T12:46:41;99321.72;;;28.37;47.12
77112;BME280;66064;50.226;14.344;2023-06-10T12:49:07;99318.25;;;28.48;45.68
77112;BME280;66064;50.226;14.344;2023-06-10T12:51:33;99332.84;;;28.34;44.70
77112;BME280;66064;50.226;14.344;2023-06-10T12:54:01;99331.22;;;27.16;46.16
77112;BME280;66064;50.226;14.344;2023-06-10T12:56:26;99324.63;;;26.12;47.44
77112;BME280;66064;50.226;14.344;2023-06-10T12:58:53;99344.81;;;25.76;55.40
77112;BME280;66064;50.226;14.344;2023-06-10T13:01:18;99334.13;;;25.22;56.17
77112;BME280;66064;50.226;14.344;2023-06-10T13:03:44;99336.38;;;25.14;55.27
77112;BME280;66064;50.226;14.344;2023-06-10T13:06:10;99325.78;;;25.25;58.93
77112;BME280;66064;50.226;14.344;2023-06-10T13:08:37;99335.31;;;24.46;58.42
77112;BME280;66064;50.226;14.344;2023-06-10T13:11:03;99333.63;;;24.79;58.74
77112;BME280;66064;50.226;14.344;2023-06-10T13:13:29;99337.44;;;24.75;57.03
77112;BME280;66064;50.226;14.344;2023-06-10T13:15:55;99339.53;;;24.34;55.78
77112;BME280;66064;50.226;14.344;2023-06-10T13:18:21;99332.56;;;24.28;56.88
77112;BME280;66064;50.226;14.344;2023-06-10T13:20:47;99336.22;;;24.27;58.40